createdAt,value
2022-11-08T00:00:40.680Z,41.65
2022-11-08T00:01:44.099Z,33.42
2022-11-08T00:02:49.108Z,36.70
2022-11-08T00:03:52.569Z,47.95
2022-11-08T00:04:56.319Z,39.25
2022-11-08T00:06:17.920Z,43.15
2022-11-08T00:07:38.911Z,38.03
2022-11-08T00:09:01.040Z,40.55
2022-11-08T00:10:22.551Z,37.83
2022-11-08T00:11:43.667Z,34.83
2022-11-08T00:13:05.339Z,37.00
2022-11-08T00:14:09.192Z,35.60
2022-11-08T00:15:12.786Z,42.58
2022-11-08T00:16:16.483Z,49.22
2022-11-08T00:17:23.319Z,43.85
2022-11-08T00:18:27.511Z,47.33
2022-11-08T00:19:31.320Z,71.60
2022-11-08T00:20:36.392Z,59.15
2022-11-08T00:21:39.732Z,47.03
2022-11-08T00:22:43.560Z,40.28
2022-11-08T00:23:47.729Z,52.63
2022-11-08T00:24:53.233Z,42.88
2022-11-08T00:25:56.238Z,39.38
2022-11-08T00:27:00.361Z,39.85
2022-11-08T00:28:03.130Z,39.60
2022-11-08T00:29:07.561Z,51.55
2022-11-08T00:30:12.082Z,37.13
2022-11-08T00:31:17.111Z,38.15
2022-11-08T00:32:22.158Z,35.85
2022-11-08T00:33:26.037Z,39.88
2022-11-08T00:34:28.945Z,43.47
2022-11-08T00:35:32.708Z,36.83
2022-11-08T00:36:35.808Z,36.65
2022-11-08T00:37:43.284Z,44.97
2022-11-08T00:38:47.381Z,36.92
2022-11-08T00:39:51.376Z,36.50
2022-11-08T00:40:54.447Z,35.13
2022-11-08T00:41:59.104Z,50.95
2022-11-08T00:43:01.956Z,58.97
2022-11-08T00:44:06.596Z,37.33
2022-11-08T00:45:09.767Z,45.90
2022-11-08T00:46:13.532Z,41.88
2022-11-08T00:47:18.158Z,39.40
2022-11-08T00:48:21.267Z,41.38
2022-11-08T00:49:25.869Z,42.05
2022-11-08T00:50:28.850Z,38.13
2022-11-08T00:51:33.256Z,43.05
2022-11-08T00:52:36.996Z,36.20
2022-11-08T00:53:40.461Z,41.58
2022-11-08T00:54:45.996Z,37.13
2022-11-08T00:55:48.684Z,44.03
2022-11-08T00:56:52.486Z,38.60
2022-11-08T00:57:59.642Z,43.47
2022-11-08T00:59:04.145Z,41.83
2022-11-08T01:00:10.447Z,42.72
2022-11-08T01:01:14.833Z,36.65
2022-11-08T01:02:18.640Z,44.58
2022-11-08T01:03:21.601Z,35.72
2022-11-08T01:04:26.585Z,37.85
2022-11-08T01:05:29.783Z,33.22
2022-11-08T01:06:33.795Z,37.22
2022-11-08T01:07:38.549Z,35.47
2022-11-08T01:08:44.096Z,35.45
2022-11-08T01:09:49.387Z,51.55
2022-11-08T01:10:53.012Z,38.60
2022-11-08T01:11:57.808Z,66.82
2022-11-08T01:13:03.236Z,46.85
2022-11-08T01:14:06.962Z,51.10
2022-11-08T01:15:10.346Z,47.58
2022-11-08T01:16:16.617Z,38.80
2022-11-08T01:17:20.496Z,37.88
2022-11-08T01:18:23.447Z,39.65
2022-11-08T01:19:27.188Z,40.35
2022-11-08T01:20:30.833Z,36.78
2022-11-08T01:21:35.182Z,32.80
2022-11-08T01:22:37.857Z,36.72
2022-11-08T01:23:42.697Z,39.17
2022-11-08T01:24:45.555Z,45.55
2022-11-08T01:25:51.184Z,33.22
2022-11-08T01:26:54.953Z,45.03
2022-11-08T01:27:58.536Z,60.60
2022-11-08T01:29:02.576Z,48.08
2022-11-08T01:30:06.432Z,46.20
2022-11-08T01:31:12.546Z,62.60
2022-11-08T01:32:15.385Z,52.58
2022-11-08T01:33:19.266Z,49.42
2022-11-08T01:34:22.260Z,57.08
2022-11-08T01:35:26.524Z,68.95
2022-11-08T01:36:33.286Z,91.53
2022-11-08T01:37:36.539Z,58.83
2022-11-08T01:38:40.981Z,114.20
2022-11-08T01:39:43.732Z,78.82
2022-11-08T01:40:49.325Z,72.60
2022-11-08T01:41:54.586Z,65.95
2022-11-08T01:42:57.524Z,73.20
2022-11-08T01:44:01.757Z,66.63
2022-11-08T01:45:05.914Z,85.85
2022-11-08T01:46:35.128Z,78.63
2022-11-08T01:47:39.318Z,115.25
2022-11-08T01:48:44.211Z,84.32
2022-11-08T01:49:48.443Z,81.72
2022-11-08T01:50:51.924Z,89.65
2022-11-08T01:52:03.047Z,61.42
2022-11-08T01:53:07.734Z,69.10
2022-11-08T01:54:14.734Z,65.70
2022-11-08T01:55:22.495Z,74.72
2022-11-08T01:56:27.001Z,60.63
2022-11-08T01:57:36.610Z,64.95
2022-11-08T01:58:40.105Z,74.10
2022-11-08T01:59:46.064Z,76.18
2022-11-08T02:00:49.300Z,64.05
2022-11-08T02:01:53.488Z,54.92
2022-11-08T02:02:59.914Z,59.22
2022-11-08T02:04:03.356Z,56.00
2022-11-08T02:05:25.005Z,53.15
2022-11-08T02:06:29.052Z,53.45
2022-11-08T02:07:33.569Z,46.38
2022-11-08T02:08:39.045Z,51.28
2022-11-08T02:09:45.504Z,44.33
2022-11-08T02:10:51.129Z,49.25
2022-11-08T02:11:55.116Z,36.58
2022-11-08T02:13:03.753Z,43.25
2022-11-08T02:14:09.016Z,39.90
2022-11-08T02:15:12.902Z,38.75
2022-11-08T02:16:17.836Z,41.33
2022-11-08T02:17:20.917Z,38.80
2022-11-08T02:18:27.138Z,44.47
2022-11-08T02:19:37.193Z,37.08
2022-11-08T02:20:45.865Z,45.50
2022-11-08T02:21:52.097Z,52.85
2022-11-08T02:23:00.673Z,44.88
2022-11-08T02:24:09.009Z,64.13
2022-11-08T02:25:12.810Z,63.50
2022-11-08T02:26:16.202Z,65.40
2022-11-08T02:27:20.944Z,65.63
2022-11-08T02:28:24.076Z,59.63
2022-11-08T02:29:31.598Z,115.53
2022-11-08T02:30:34.673Z,73.03
2022-11-08T02:31:39.038Z,97.90
2022-11-08T02:32:42.947Z,78.00
2022-11-08T02:33:48.721Z,79.63
2022-11-08T02:34:53.817Z,60.08
2022-11-08T02:35:59.126Z,60.20
2022-11-08T02:37:02.694Z,72.95
2022-11-08T02:38:06.714Z,52.50
2022-11-08T02:39:11.035Z,77.53
2022-11-08T02:40:15.024Z,87.53
2022-11-08T02:41:17.784Z,45.30
2022-11-08T02:42:22.196Z,47.00
2022-11-08T02:43:25.716Z,46.60
2022-11-08T02:44:30.337Z,43.70
2022-11-08T02:45:34.177Z,41.78
2022-11-08T02:46:37.917Z,37.45
2022-11-08T02:47:41.056Z,37.78
2022-11-08T02:48:45.105Z,36.08
2022-11-08T02:49:48.038Z,37.53
2022-11-08T02:50:51.887Z,41.17
2022-11-08T02:51:55.874Z,40.63
2022-11-08T02:52:58.727Z,48.38
2022-11-08T02:54:03.372Z,38.65
2022-11-08T02:55:08.828Z,41.50
2022-11-08T02:56:13.036Z,33.85
2022-11-08T02:57:16.052Z,35.95
2022-11-08T02:58:20.225Z,33.80
2022-11-08T02:59:24.308Z,34.67
2022-11-08T03:00:28.475Z,37.33
2022-11-08T03:01:31.172Z,45.50
2022-11-08T03:02:36.037Z,41.47
2022-11-08T03:03:39.166Z,35.42
2022-11-08T03:04:42.905Z,38.03
2022-11-08T03:05:47.750Z,50.40
2022-11-08T03:06:51.752Z,40.88
2022-11-08T03:07:56.572Z,41.90
2022-11-08T03:09:00.505Z,37.72
2022-11-08T03:10:03.223Z,38.28
2022-11-08T03:11:10.055Z,43.30
2022-11-08T03:12:16.165Z,39.40
2022-11-08T03:13:18.904Z,41.08
2022-11-08T03:14:24.401Z,39.50
2022-11-08T03:15:28.450Z,32.28
2022-11-08T03:16:32.863Z,36.53
2022-11-08T03:17:36.643Z,38.25
2022-11-08T03:18:40.565Z,44.22
2022-11-08T03:19:44.898Z,48.42
2022-11-08T03:20:48.563Z,35.75
2022-11-08T03:21:52.274Z,31.67
2022-11-08T03:23:01.220Z,37.25
2022-11-08T03:24:06.378Z,38.05
2022-11-08T03:25:10.415Z,34.70
2022-11-08T03:26:14.507Z,36.83
2022-11-08T03:27:19.575Z,40.97
2022-11-08T03:28:24.727Z,30.48
2022-11-08T03:29:31.256Z,35.38
2022-11-08T03:30:34.433Z,41.92
2022-11-08T03:31:40.576Z,36.08
2022-11-08T03:32:44.633Z,38.65
2022-11-08T03:33:48.305Z,44.22
2022-11-08T03:34:50.996Z,41.90
2022-11-08T03:35:56.286Z,41.38
2022-11-08T03:36:59.306Z,36.92
2022-11-08T03:38:03.304Z,39.95
2022-11-08T03:39:07.006Z,40.08
2022-11-08T03:40:11.084Z,33.63
2022-11-08T03:41:18.028Z,38.97
2022-11-08T03:42:22.675Z,31.98
2022-11-08T03:43:28.163Z,37.00
2022-11-08T03:44:32.926Z,33.47
2022-11-08T03:45:37.326Z,38.03
2022-11-08T03:46:40.026Z,44.35
2022-11-08T03:47:45.635Z,44.40
2022-11-08T03:48:50.946Z,42.28
2022-11-08T03:49:56.091Z,40.20
2022-11-08T03:50:59.175Z,42.08
2022-11-08T03:52:04.496Z,48.33
2022-11-08T03:53:07.223Z,49.10
2022-11-08T03:54:11.633Z,39.20
2022-11-08T03:55:17.314Z,41.25
2022-11-08T03:56:22.500Z,39.95
2022-11-08T03:57:25.135Z,39.28
2022-11-08T03:58:29.223Z,38.03
2022-11-08T03:59:32.012Z,33.58
2022-11-08T04:00:35.740Z,32.30
2022-11-08T04:01:41.312Z,33.22
2022-11-08T04:02:45.634Z,38.72
2022-11-08T04:03:49.369Z,35.45
2022-11-08T04:04:54.315Z,40.55
2022-11-08T04:05:58.417Z,34.25
2022-11-08T04:07:02.235Z,36.75
2022-11-08T04:08:07.385Z,35.70
2022-11-08T04:09:14.012Z,34.13
2022-11-08T04:10:19.368Z,37.20
2022-11-08T04:11:41.756Z,32.03
2022-11-08T04:13:02.935Z,35.58
2022-11-08T04:14:24.157Z,33.90
2022-11-08T04:15:29.210Z,38.55
2022-11-08T04:16:32.645Z,38.83
2022-11-08T04:17:50.172Z,45.13
2022-11-08T04:19:11.221Z,44.80
2022-11-08T04:20:35.224Z,31.20
2022-11-08T04:21:39.175Z,35.17
2022-11-08T04:22:41.885Z,41.60
2022-11-08T04:23:49.396Z,41.08
2022-11-08T04:24:52.090Z,39.60
2022-11-08T04:25:57.058Z,43.05
2022-11-08T04:27:03.515Z,43.95
2022-11-08T04:28:09.539Z,40.95
2022-11-08T04:29:13.413Z,37.63
2022-11-08T04:30:18.888Z,43.97
2022-11-08T04:31:22.586Z,45.67
2022-11-08T04:32:25.827Z,34.65
2022-11-08T04:33:29.534Z,37.83
2022-11-08T04:34:32.245Z,37.28
2022-11-08T04:35:35.959Z,36.10
2022-11-08T04:36:41.264Z,40.42
2022-11-08T04:37:44.090Z,40.33
2022-11-08T04:38:49.744Z,46.03
2022-11-08T04:39:52.594Z,32.33
2022-11-08T04:41:02.772Z,38.88
2022-11-08T04:42:07.996Z,40.08
2022-11-08T04:43:13.697Z,33.60
2022-11-08T04:44:18.660Z,36.92
2022-11-08T04:45:22.655Z,33.72
2022-11-08T04:46:31.356Z,29.30
2022-11-08T04:47:38.928Z,35.35
2022-11-08T04:48:45.735Z,40.33
2022-11-08T04:49:50.135Z,36.30
2022-11-08T04:50:56.725Z,35.10
2022-11-08T04:51:59.393Z,37.83
2022-11-08T04:53:03.178Z,38.53
2022-11-08T04:54:10.336Z,42.00
2022-11-08T04:55:16.336Z,34.17
2022-11-08T04:56:20.756Z,34.08
2022-11-08T04:57:27.147Z,39.08
2022-11-08T04:58:30.022Z,43.35
2022-11-08T04:59:33.749Z,35.33
2022-11-08T05:00:39.355Z,36.28
2022-11-08T05:01:44.263Z,37.60
2022-11-08T05:02:47.136Z,38.83
2022-11-08T05:03:52.286Z,39.20
2022-11-08T05:04:55.506Z,39.72
2022-11-08T05:06:05.236Z,37.45
2022-11-08T05:07:10.073Z,36.70
2022-11-08T05:08:13.803Z,39.85
2022-11-08T05:09:19.266Z,40.28
2022-11-08T05:10:25.705Z,35.35
2022-11-08T05:11:32.664Z,34.92
2022-11-08T05:12:37.787Z,33.42
2022-11-08T05:13:40.666Z,40.90
2022-11-08T05:14:44.480Z,35.25
2022-11-08T05:15:58.543Z,44.05
2022-11-08T05:17:04.254Z,37.50
2022-11-08T05:18:07.327Z,35.20
2022-11-08T05:19:13.345Z,42.65
2022-11-08T05:20:34.637Z,37.67
2022-11-08T05:21:55.577Z,38.08
2022-11-08T05:23:21.463Z,32.05
2022-11-08T05:24:27.306Z,29.75
2022-11-08T05:25:32.287Z,39.03
2022-11-08T05:26:37.848Z,30.98
2022-11-08T05:27:41.944Z,29.77
2022-11-08T05:28:45.825Z,34.72
2022-11-08T05:29:48.528Z,32.10
2022-11-08T05:30:55.974Z,40.42
2022-11-08T05:31:58.615Z,34.17
2022-11-08T05:33:02.375Z,37.63
2022-11-08T05:34:07.549Z,34.63
2022-11-08T05:35:10.317Z,31.55
2022-11-08T05:36:15.555Z,32.83
2022-11-08T05:37:18.206Z,33.47
2022-11-08T05:38:22.546Z,32.80
2022-11-08T05:39:31.797Z,32.22
2022-11-08T05:40:35.896Z,31.58
2022-11-08T05:41:38.576Z,37.25
2022-11-08T05:42:43.803Z,38.05
2022-11-08T05:43:48.092Z,34.58
2022-11-08T05:44:51.843Z,34.92
2022-11-08T05:45:56.227Z,36.85
2022-11-08T05:47:00.035Z,36.85
2022-11-08T05:48:04.164Z,31.98
2022-11-08T05:49:11.155Z,38.70
2022-11-08T05:50:19.274Z,35.70
2022-11-08T05:51:23.348Z,33.25
2022-11-08T05:52:26.363Z,31.27
2022-11-08T05:53:30.114Z,35.78
2022-11-08T05:54:32.817Z,38.65
2022-11-08T05:55:36.574Z,31.67
2022-11-08T05:56:42.412Z,34.63
2022-11-08T05:57:47.703Z,33.60
2022-11-08T05:58:50.426Z,38.88
2022-11-08T05:59:54.217Z,34.60
2022-11-08T06:01:00.724Z,37.35
2022-11-08T06:02:04.585Z,34.05
2022-11-08T06:03:07.931Z,35.08
2022-11-08T06:04:11.715Z,38.65
2022-11-08T06:05:14.842Z,33.45
2022-11-08T06:06:22.386Z,37.03
2022-11-08T06:07:25.101Z,32.22
2022-11-08T06:08:28.813Z,34.22
2022-11-08T06:09:31.424Z,36.35
2022-11-08T06:10:35.184Z,34.40
2022-11-08T06:11:38.495Z,36.42
2022-11-08T06:12:42.309Z,53.30
2022-11-08T06:13:46.424Z,49.10
2022-11-08T06:14:50.264Z,40.97
2022-11-08T06:15:54.297Z,43.70
2022-11-08T06:16:57.059Z,42.58
2022-11-08T06:18:04.024Z,41.58
2022-11-08T06:19:07.827Z,42.80
2022-11-08T06:20:13.364Z,46.70
2022-11-08T06:21:20.816Z,46.63
2022-11-08T06:22:23.551Z,47.60
2022-11-08T06:23:30.395Z,45.83
2022-11-08T06:24:33.103Z,46.90
2022-11-08T06:25:36.775Z,50.72
2022-11-08T06:26:40.121Z,46.58
2022-11-08T06:27:44.324Z,45.15
2022-11-08T06:28:48.425Z,41.88
2022-11-08T06:29:52.174Z,58.45
2022-11-08T06:30:54.935Z,56.03
2022-11-08T06:31:58.988Z,99.03
2022-11-08T06:33:01.961Z,55.78
2022-11-08T06:34:05.735Z,68.93
2022-11-08T06:35:10.027Z,63.15
2022-11-08T06:36:16.085Z,69.63
2022-11-08T06:37:21.704Z,63.45
2022-11-08T06:38:25.920Z,54.03
2022-11-08T06:39:33.565Z,54.05
2022-11-08T06:40:39.487Z,75.88
2022-11-08T06:41:43.235Z,60.58
2022-11-08T06:42:47.069Z,52.80
2022-11-08T06:43:51.171Z,55.15
2022-11-08T06:44:54.875Z,51.80
2022-11-08T06:46:01.228Z,52.17
2022-11-08T06:47:05.106Z,53.53
2022-11-08T06:48:08.864Z,51.60
2022-11-08T06:49:12.655Z,51.20
2022-11-08T06:50:15.536Z,52.75
2022-11-08T06:51:19.634Z,48.90
2022-11-08T06:52:22.364Z,46.92
2022-11-08T06:53:26.164Z,41.70
2022-11-08T06:54:29.953Z,33.85
2022-11-08T06:55:33.143Z,34.28
2022-11-08T06:56:37.395Z,29.38
2022-11-08T06:57:41.754Z,40.05
2022-11-08T06:58:44.732Z,40.10
2022-11-08T06:59:49.915Z,149.68
2022-11-08T07:00:52.644Z,87.78
2022-11-08T07:01:57.291Z,69.07
2022-11-08T07:03:03.050Z,63.80
2022-11-08T07:04:07.315Z,52.67
2022-11-08T07:05:10.518Z,45.25
2022-11-08T07:06:14.297Z,40.67
2022-11-08T07:07:18.027Z,48.17
2022-11-08T07:08:24.279Z,39.08
2022-11-08T07:09:28.165Z,46.72
2022-11-08T07:10:35.306Z,46.00
2022-11-08T07:11:40.446Z,42.85
2022-11-08T07:12:44.292Z,39.47
2022-11-08T07:13:49.535Z,38.00
2022-11-08T07:14:54.676Z,37.15
2022-11-08T07:16:02.979Z,41.47
2022-11-08T07:17:07.333Z,38.75
2022-11-08T07:18:12.038Z,43.90
2022-11-08T07:19:16.298Z,41.65
2022-11-08T07:20:18.966Z,42.20
2022-11-08T07:21:23.046Z,43.50
2022-11-08T07:22:26.513Z,49.83
2022-11-08T07:23:30.534Z,50.50
2022-11-08T07:24:34.275Z,49.90
2022-11-08T07:25:37.407Z,46.28
2022-11-08T07:26:41.235Z,49.63
2022-11-08T07:27:44.012Z,54.38
2022-11-08T07:28:47.777Z,57.22
2022-11-08T07:29:51.543Z,37.05
2022-11-08T07:30:59.644Z,41.40
2022-11-08T07:32:02.446Z,49.42
2022-11-08T07:33:06.234Z,34.50
2022-11-08T07:34:09.914Z,34.38
2022-11-08T07:35:12.690Z,35.40
2022-11-08T07:36:16.549Z,29.05
2022-11-08T07:37:19.234Z,29.67
2022-11-08T07:38:23.298Z,27.85
2022-11-08T07:39:27.086Z,27.40
2022-11-08T07:40:29.775Z,31.67
2022-11-08T07:41:33.514Z,28.70
2022-11-08T07:43:04.831Z,28.75
2022-11-08T07:44:00.435Z,34.00
2022-11-08T07:45:03.346Z,31.73
2022-11-08T07:46:08.797Z,35.17
2022-11-08T07:47:12.401Z,30.58
2022-11-08T07:48:15.116Z,30.27
2022-11-08T07:49:19.063Z,33.42
2022-11-08T07:50:22.475Z,34.67
2022-11-08T07:51:26.225Z,29.50
2022-11-08T07:52:28.936Z,29.48
2022-11-08T07:53:32.705Z,30.45
2022-11-08T07:54:35.503Z,28.88
2022-11-08T07:55:39.681Z,34.38
2022-11-08T07:56:43.538Z,29.60
2022-11-08T07:57:46.340Z,31.08
2022-11-08T07:58:50.386Z,34.00
2022-11-08T07:59:53.355Z,25.27
2022-11-08T08:01:02.126Z,27.88
2022-11-08T08:02:06.422Z,24.00
2022-11-08T08:03:12.047Z,23.42
2022-11-08T08:04:16.264Z,25.02
2022-11-08T08:05:18.966Z,27.73
2022-11-08T08:06:23.554Z,25.98
2022-11-08T08:07:26.298Z,27.48
2022-11-08T08:08:31.076Z,29.75
2022-11-08T08:09:34.946Z,27.60
2022-11-08T08:10:38.795Z,29.27
2022-11-08T08:11:42.485Z,29.98
2022-11-08T08:12:45.026Z,28.15
2022-11-08T08:13:48.584Z,28.23
2022-11-08T08:14:51.287Z,26.10
2022-11-08T08:15:54.965Z,25.33
2022-11-08T08:16:58.767Z,30.90
2022-11-08T08:18:05.285Z,25.65
2022-11-08T08:19:09.125Z,25.98
2022-11-08T08:20:12.857Z,23.45
2022-11-08T08:21:16.776Z,26.17
2022-11-08T08:22:19.409Z,23.70
2022-11-08T08:23:23.368Z,21.75
2022-11-08T08:24:26.835Z,23.73
2022-11-08T08:25:31.720Z,22.60
2022-11-08T08:26:35.595Z,20.30
2022-11-08T08:27:38.503Z,19.48
2022-11-08T08:28:42.204Z,22.30
2022-11-08T08:29:45.301Z,22.40
2022-11-08T08:30:49.269Z,20.30
2022-11-08T08:31:52.976Z,23.35
2022-11-08T08:34:28.936Z,22.95
2022-11-08T08:35:31.577Z,21.65
2022-11-08T08:36:35.296Z,21.15
2022-11-08T08:37:37.995Z,22.35
2022-11-08T08:38:44.675Z,20.55
2022-11-08T08:39:48.296Z,16.95
2022-11-08T08:40:52.151Z,20.90
2022-11-08T08:41:54.836Z,20.08
2022-11-08T08:42:59.872Z,21.02
2022-11-08T08:44:03.619Z,15.02
2022-11-08T08:45:13.520Z,17.00
2022-11-08T08:46:18.471Z,15.73
2022-11-08T08:47:21.154Z,15.52
2022-11-08T08:48:26.323Z,14.85
2022-11-08T08:49:29.828Z,16.48
2022-11-08T08:50:34.814Z,19.70
2022-11-08T08:51:38.476Z,15.90
2022-11-08T08:52:42.063Z,19.05
2022-11-08T08:53:45.067Z,15.77
2022-11-08T08:54:49.232Z,15.70
2022-11-08T08:55:53.792Z,15.57
2022-11-08T08:56:57.716Z,13.35
2022-11-08T08:58:01.422Z,12.60
2022-11-08T09:01:53.147Z,14.50
2022-11-08T09:02:56.094Z,17.73
2022-11-08T09:04:01.421Z,16.83
2022-11-08T09:05:05.704Z,13.85
2022-11-08T09:06:09.736Z,10.45
2022-11-08T09:07:13.576Z,14.18
2022-11-08T09:08:17.509Z,12.27
2022-11-08T09:09:21.278Z,14.38
2022-11-08T09:10:25.117Z,14.27
2022-11-08T09:11:28.855Z,13.68
2022-11-08T09:12:31.777Z,9.43
2022-11-08T09:13:35.578Z,15.63
2022-11-08T09:14:39.205Z,15.70
2022-11-08T09:15:41.855Z,15.90
2022-11-08T09:16:45.646Z,16.58
2022-11-08T09:17:49.726Z,15.07
2022-11-08T09:18:53.592Z,16.10
2022-11-08T09:19:58.917Z,15.45
2022-11-08T09:21:04.578Z,14.57
2022-11-08T09:22:08.383Z,17.15
2022-11-08T09:23:11.371Z,13.20
2022-11-08T09:24:15.182Z,14.27
2022-11-08T09:25:17.967Z,16.58
2022-11-08T09:26:21.747Z,17.35
2022-11-08T09:27:24.497Z,18.88
2022-11-08T09:28:31.252Z,12.90
2022-11-08T09:29:35.706Z,15.02
2022-11-08T09:30:39.406Z,13.93
2022-11-08T09:31:43.128Z,14.13
2022-11-08T09:33:00.355Z,19.08
2022-11-08T09:34:04.785Z,16.25
2022-11-08T09:35:10.066Z,15.73
2022-11-08T09:36:15.128Z,12.60
2022-11-08T09:37:18.915Z,18.15
2022-11-08T09:38:23.182Z,13.27
2022-11-08T09:39:25.880Z,12.68
2022-11-08T09:40:33.652Z,16.20
2022-11-08T09:41:51.504Z,18.17
2022-11-08T09:43:05.524Z,22.42
2022-11-08T09:44:15.734Z,16.50
2022-11-08T09:45:30.536Z,10.13
2022-11-08T09:46:40.756Z,14.07
2022-11-08T09:47:47.799Z,9.00
2022-11-08T09:48:56.635Z,11.15
2022-11-08T09:50:02.097Z,11.50
2022-11-08T09:51:09.428Z,11.35
2022-11-08T09:52:24.706Z,9.43
2022-11-08T09:53:35.548Z,9.95
2022-11-08T09:54:41.622Z,10.63
2022-11-08T09:55:47.854Z,13.35
2022-11-08T09:56:52.617Z,9.40
2022-11-08T09:58:01.451Z,8.73
2022-11-08T09:59:10.729Z,11.90
2022-11-08T10:00:14.512Z,14.35
2022-11-08T10:01:21.119Z,8.75
2022-11-08T10:02:27.559Z,8.13
2022-11-08T10:03:31.764Z,18.38
2022-11-08T10:04:38.204Z,8.45
2022-11-08T10:05:44.026Z,8.73
2022-11-08T10:07:02.752Z,9.32
2022-11-08T10:08:12.450Z,10.77
2022-11-08T10:09:30.737Z,8.65
2022-11-08T10:11:08.275Z,7.90
2022-11-08T10:12:19.459Z,13.05
2022-11-08T10:13:27.603Z,9.20
2022-11-08T10:14:49.031Z,9.23
2022-11-08T10:16:05.899Z,10.82
2022-11-08T10:17:32.867Z,8.82
2022-11-08T10:18:43.226Z,8.63
2022-11-08T10:20:06.660Z,12.23
2022-11-08T10:21:20.001Z,8.63
2022-11-08T10:22:32.165Z,11.57
2022-11-08T10:23:44.070Z,12.13
2022-11-08T10:24:54.155Z,10.75
2022-11-08T10:26:01.258Z,7.93
2022-11-08T10:27:07.203Z,8.20
2022-11-08T10:28:13.521Z,10.23
2022-11-08T10:29:21.732Z,8.73
2022-11-08T10:30:26.807Z,12.57
2022-11-08T10:31:33.255Z,8.35
2022-11-08T10:32:36.577Z,11.73
2022-11-08T10:33:44.651Z,9.70
2022-11-08T10:34:53.444Z,8.52
2022-11-08T10:36:02.358Z,10.43
2022-11-08T10:37:10.627Z,9.77
2022-11-08T10:38:20.838Z,7.97
2022-11-08T10:39:27.346Z,10.75
2022-11-08T10:40:39.292Z,6.20
2022-11-08T10:41:46.353Z,11.45
2022-11-08T10:42:55.246Z,7.53
2022-11-08T10:44:04.777Z,6.95
2022-11-08T10:45:10.927Z,6.10
2022-11-08T10:46:39.824Z,8.38
2022-11-08T10:47:46.267Z,5.70
2022-11-08T10:48:50.094Z,7.00
2022-11-08T10:49:57.225Z,6.28
2022-11-08T10:51:03.656Z,9.52
2022-11-08T10:52:19.193Z,13.98
2022-11-08T10:53:27.840Z,5.70
2022-11-08T10:54:45.920Z,7.40
2022-11-08T10:55:52.094Z,6.18
2022-11-08T10:56:56.041Z,6.28
2022-11-08T10:57:59.886Z,8.38
2022-11-08T10:59:03.795Z,6.20
2022-11-08T11:00:27.665Z,6.07
2022-11-08T11:01:30.391Z,8.65
2022-11-08T11:02:36.303Z,6.40
2022-11-08T11:03:40.064Z,7.50
2022-11-08T11:04:42.805Z,8.40
2022-11-08T11:06:00.924Z,8.90
2022-11-08T11:07:04.575Z,8.02
2022-11-08T11:08:19.368Z,10.73
2022-11-08T11:09:28.655Z,9.60
2022-11-08T11:10:33.345Z,8.75
2022-11-08T11:11:38.764Z,6.53
2022-11-08T11:12:41.819Z,7.07
2022-11-08T11:13:45.717Z,7.85
2022-11-08T11:14:57.046Z,8.05
2022-11-08T11:16:03.346Z,7.40
2022-11-08T11:17:15.399Z,6.90
2022-11-08T11:18:27.185Z,6.32
2022-11-08T11:19:31.727Z,5.30
2022-11-08T11:20:35.585Z,7.95
2022-11-08T11:21:39.904Z,5.70
2022-11-08T11:22:47.422Z,4.93
2022-11-08T11:23:53.246Z,7.00
2022-11-08T11:24:58.661Z,15.00
2022-11-08T11:26:01.506Z,7.18
2022-11-08T11:27:07.096Z,10.35
2022-11-08T11:28:15.672Z,8.88
2022-11-08T11:29:22.722Z,4.95
2022-11-08T11:30:33.948Z,11.18
2022-11-08T11:31:38.630Z,10.65
2022-11-08T11:32:44.133Z,6.00
2022-11-08T11:33:48.365Z,18.65
2022-11-08T11:34:56.925Z,15.65
2022-11-08T11:36:13.793Z,5.57
2022-11-08T11:37:55.878Z,5.82
2022-11-08T11:39:01.707Z,7.05
2022-11-08T11:40:13.684Z,9.07
2022-11-08T11:41:19.783Z,7.72
2022-11-08T11:44:02.344Z,10.90
2022-11-08T11:45:13.108Z,8.27
2022-11-08T11:46:22.174Z,10.68
2022-11-08T11:47:30.454Z,7.88
2022-11-08T11:48:38.474Z,9.77
2022-11-08T11:49:45.086Z,9.93
2022-11-08T11:50:50.178Z,8.57
2022-11-08T11:51:55.218Z,8.02
2022-11-08T11:52:59.286Z,8.73
2022-11-08T11:54:04.877Z,6.90
2022-11-08T11:55:13.343Z,9.68
2022-11-08T11:56:26.939Z,11.18
2022-11-08T11:57:36.655Z,5.70
2022-11-08T11:59:11.742Z,8.20
2022-11-08T12:00:16.411Z,9.23
2022-11-08T12:01:26.664Z,8.88
2022-11-08T12:02:59.904Z,7.43
2022-11-08T12:04:25.632Z,12.07
2022-11-08T12:05:36.765Z,6.53
2022-11-08T12:06:46.010Z,6.28
2022-11-08T12:07:56.007Z,5.93
2022-11-08T12:09:14.545Z,5.95
2022-11-08T12:10:27.415Z,7.45
2022-11-08T12:11:38.662Z,5.75
2022-11-08T12:12:50.408Z,8.52
2022-11-08T12:14:07.015Z,5.68
2022-11-08T12:15:17.414Z,5.78
2022-11-08T12:16:25.173Z,8.48
2022-11-08T12:17:49.283Z,7.13
2022-11-08T12:19:03.274Z,5.45
2022-11-08T12:20:20.422Z,6.70
2022-11-08T12:21:31.354Z,7.40
2022-11-08T12:22:49.184Z,4.82
2022-11-08T12:24:01.794Z,5.68
2022-11-08T12:25:08.545Z,4.13
2022-11-08T12:26:19.635Z,5.97
2022-11-08T12:27:31.824Z,6.85
2022-11-08T12:28:47.395Z,5.28
2022-11-08T12:29:55.446Z,6.40
2022-11-08T12:31:04.994Z,10.23
2022-11-08T12:32:24.141Z,6.40
2022-11-08T12:33:36.025Z,8.07
2022-11-08T12:34:47.264Z,5.88
2022-11-08T12:36:02.724Z,7.00
2022-11-08T12:37:17.085Z,6.82
2022-11-08T12:38:26.873Z,8.43
2022-11-08T12:39:36.054Z,10.38
2022-11-08T12:40:44.700Z,5.90
2022-11-08T12:41:55.892Z,6.28
2022-11-08T12:43:12.252Z,6.32
2022-11-08T12:44:41.144Z,7.20
2022-11-08T12:45:53.362Z,7.70
2022-11-08T12:47:07.593Z,6.70
2022-11-08T12:48:21.911Z,11.75
2022-11-08T12:49:34.940Z,6.55
2022-11-08T12:50:44.974Z,5.32
2022-11-08T12:52:00.878Z,6.43
2022-11-08T12:53:48.753Z,8.05
2022-11-08T12:54:55.715Z,6.93
2022-11-08T12:56:00.136Z,6.30
2022-11-08T12:57:10.555Z,8.13
2022-11-08T12:58:24.943Z,7.15
2022-11-08T12:59:31.615Z,8.38
2022-11-08T13:00:36.159Z,4.68
2022-11-08T13:01:38.961Z,5.35
2022-11-08T13:02:44.022Z,5.85
2022-11-08T13:04:06.687Z,6.57
2022-11-08T13:05:13.811Z,6.80
2022-11-08T13:06:22.610Z,7.93
2022-11-08T13:07:35.532Z,4.78
2022-11-08T13:08:44.609Z,5.20
2022-11-08T13:09:53.200Z,4.53
2022-11-08T13:11:00.153Z,6.32
2022-11-08T13:12:14.735Z,8.98
2022-11-08T13:13:27.463Z,9.85
2022-11-08T13:14:31.484Z,7.38
2022-11-08T13:15:35.242Z,6.53
2022-11-08T13:16:40.232Z,5.85
2022-11-08T13:18:25.430Z,4.88
2022-11-08T13:19:30.503Z,11.85
2022-11-08T13:20:42.051Z,6.60
2022-11-08T13:21:46.297Z,6.78
2022-11-08T13:23:00.639Z,6.13
2022-11-08T13:24:43.948Z,4.25
2022-11-08T13:25:49.034Z,4.97
2022-11-08T13:26:55.771Z,7.30
2022-11-08T13:28:37.381Z,7.03
2022-11-08T13:29:41.126Z,6.57
2022-11-08T13:30:44.288Z,7.90
2022-11-08T13:31:51.762Z,6.68
2022-11-08T13:33:00.393Z,6.78
2022-11-08T13:34:26.015Z,7.32
2022-11-08T13:35:34.116Z,4.72
2022-11-08T13:36:47.472Z,5.30
2022-11-08T13:38:01.914Z,5.13
2022-11-08T13:39:20.502Z,13.05
2022-11-08T13:40:45.924Z,5.30
2022-11-08T13:42:05.695Z,19.33
2022-11-08T13:43:25.683Z,8.90
2022-11-08T13:45:00.968Z,4.90
2022-11-08T13:46:37.535Z,4.30
2022-11-08T13:47:55.835Z,6.65
2022-11-08T13:49:07.413Z,7.10
2022-11-08T13:50:48.733Z,8.05
2022-11-08T13:52:45.923Z,5.63
2022-11-08T13:53:51.686Z,10.55
2022-11-08T13:54:56.065Z,5.70
2022-11-08T13:56:09.206Z,5.03
2022-11-08T13:57:18.966Z,6.07
2022-11-08T13:58:36.402Z,6.35
2022-11-08T13:59:55.513Z,5.85
2022-11-08T14:00:59.806Z,5.32
2022-11-08T14:02:04.249Z,4.95
2022-11-08T14:03:43.624Z,5.90
2022-11-08T14:04:47.588Z,5.90
2022-11-08T14:05:51.773Z,7.95
2022-11-08T14:07:03.097Z,9.88
2022-11-08T14:08:21.625Z,5.68
2022-11-08T14:09:33.774Z,7.15
2022-11-08T14:10:40.491Z,7.40
2022-11-08T14:11:52.465Z,6.28
2022-11-08T14:13:00.834Z,5.72
2022-11-08T14:14:35.974Z,7.93
2022-11-08T14:15:44.408Z,9.50
2022-11-08T14:17:02.521Z,5.25
2022-11-08T14:18:07.785Z,7.30
2022-11-08T14:19:23.634Z,6.28
2022-11-08T14:20:35.041Z,5.70
2022-11-08T14:21:37.773Z,12.27
2022-11-08T14:22:49.853Z,9.93
2022-11-08T14:23:53.167Z,6.05
2022-11-08T14:25:01.581Z,7.43
2022-11-08T14:26:07.774Z,8.40
2022-11-08T14:27:14.213Z,11.48
2022-11-08T14:28:26.146Z,13.27
2022-11-08T14:29:29.945Z,8.60
2022-11-08T14:30:35.045Z,11.57
2022-11-08T14:31:38.825Z,12.35
2022-11-08T14:32:42.626Z,7.50
2022-11-08T14:33:45.494Z,9.20
2022-11-08T14:34:49.346Z,13.15
2022-11-08T14:35:58.156Z,13.75
2022-11-08T14:37:03.073Z,10.75